Main page
METAR-TAF:

METAR-TAF

Airports :

Bahawalpur Airport

Bahawalpur, Pakistan

latitude: 29-20-53N, longitude: 71-43-04E, elevation: 119 m

METAR: missing

Time: 02:10 (21:10 UTC)

Forecast

The report was made 5 hours and 10 minutes ago, at 16:00 UTC
Forecast valid from 21 at 18 UTC to 22 at 12 UTC
Wind 5 kt from the Northeast
Visibility: 2000 m
Scattered clouds at a height of 12000 ft
mist
Probability 30% :
Temporary
from 22 at 01 UTC to 22 at 05 UTC
Wind kt from the North
Visibility: 1000 m
Few clouds at a height of 12000 ft
mist

TAF: OPBW 211600Z 2118/2212 05005KT 2000 BR SCT120 TN13/2201Z TX30/2210Z PROB30 TEMPO 2201/2205 00000KT 1000 BR FEW120

Weather observations and forecasts of more than 4000 airports (METAR and TAF reports).

The available stations are represented by yellow and red dots on the map.

Hover mouse over dot to see the name of the station.

Then click to see weather observations and forecasts.

To change the map : click on the green buttons with a black cross to zoom in, on the green button with a dash to zoom out, or on the green arrows for adjacent maps.


METAR-TAF: